createdAt,value
2018-08-13T00:00:52.435Z,25.96
2018-08-13T00:03:18.377Z,26.00
2018-08-13T00:05:44.336Z,26.11
2018-08-13T00:08:10.284Z,25.93
2018-08-13T00:10:36.239Z,26.41
2018-08-13T00:13:02.190Z,25.93
2018-08-13T00:15:28.185Z,26.14
2018-08-13T00:17:54.113Z,25.98
2018-08-13T00:20:20.075Z,25.92
2018-08-13T00:22:46.033Z,25.85
2018-08-13T00:25:12.014Z,25.79
2018-08-13T00:27:38.045Z,25.84
2018-08-13T00:30:04.021Z,25.54
2018-08-13T00:32:29.949Z,25.37
2018-08-13T00:34:55.926Z,25.53
2018-08-13T00:37:21.862Z,25.79
2018-08-13T00:39:47.825Z,25.72
2018-08-13T00:42:13.763Z,26.23
2018-08-13T00:44:39.718Z,26.18
2018-08-13T00:47:05.709Z,25.72
2018-08-13T00:49:31.689Z,26.16
2018-08-13T00:51:57.640Z,26.09
2018-08-13T00:54:23.605Z,25.98
2018-08-13T00:56:49.571Z,25.80
2018-08-13T00:59:15.529Z,25.83
2018-08-13T01:01:41.755Z,25.65
2018-08-13T01:04:07.710Z,25.49
2018-08-13T01:06:33.669Z,25.38
2018-08-13T01:08:59.631Z,25.40
2018-08-13T01:11:25.591Z,25.80
2018-08-13T01:13:51.559Z,25.81
2018-08-13T01:16:17.547Z,25.70
2018-08-13T01:18:43.545Z,25.69
2018-08-13T01:21:09.506Z,25.24
2018-08-13T01:23:35.470Z,25.28
2018-08-13T01:26:01.428Z,25.49
2018-08-13T01:28:27.377Z,25.51
2018-08-13T01:30:53.316Z,25.89
2018-08-13T01:33:19.244Z,25.67
2018-08-13T01:35:45.214Z,25.03
2018-08-13T01:38:11.179Z,25.20
2018-08-13T01:40:37.137Z,25.14
2018-08-13T01:43:03.070Z,25.03
2018-08-13T01:45:29.017Z,25.44
2018-08-13T01:47:54.970Z,24.97
2018-08-13T01:50:20.936Z,25.51
2018-08-13T01:52:46.888Z,25.47
2018-08-13T01:55:12.842Z,25.47
2018-08-13T01:57:38.792Z,25.29
2018-08-13T02:00:04.770Z,25.30
2018-08-13T02:02:30.728Z,25.26
2018-08-13T02:04:56.690Z,25.42
2018-08-13T02:07:22.624Z,25.13
2018-08-13T02:09:48.575Z,25.35
2018-08-13T02:12:14.513Z,25.32
2018-08-13T02:14:40.477Z,25.38
2018-08-13T02:17:06.414Z,25.07
2018-08-13T02:19:32.377Z,24.86
2018-08-13T02:21:58.313Z,24.72
2018-08-13T02:24:24.243Z,24.88
2018-08-13T02:26:50.249Z,24.92
2018-08-13T02:29:16.236Z,24.73
2018-08-13T02:31:42.189Z,25.17
2018-08-13T02:34:08.139Z,24.67
2018-08-13T02:36:34.080Z,24.53
2018-08-13T02:39:00.098Z,24.97
2018-08-13T02:41:26.074Z,24.86
2018-08-13T02:43:52.085Z,24.87
2018-08-13T02:46:18.052Z,24.93
2018-08-13T02:48:43.998Z,24.78
2018-08-13T02:51:09.981Z,24.91
2018-08-13T02:53:35.938Z,24.71
2018-08-13T02:56:01.926Z,24.47
2018-08-13T02:58:27.911Z,24.41
2018-08-13T03:00:53.855Z,24.73
2018-08-13T03:03:19.813Z,24.74
2018-08-13T03:05:45.786Z,24.85
2018-08-13T03:08:11.747Z,24.27
2018-08-13T03:10:37.704Z,24.43
2018-08-13T03:13:03.680Z,24.62
2018-08-13T03:15:29.631Z,24.70
2018-08-13T03:17:55.594Z,25.03
2018-08-13T03:20:21.536Z,25.04
2018-08-13T03:25:13.228Z,24.80
2018-08-13T03:27:39.189Z,24.55
2018-08-13T03:30:05.155Z,24.58
2018-08-13T03:32:31.131Z,24.51
2018-08-13T03:34:57.125Z,24.48
2018-08-13T03:37:23.091Z,24.41
2018-08-13T03:39:49.037Z,24.51
2018-08-13T03:42:15.072Z,24.53
2018-08-13T03:44:41.032Z,24.16
2018-08-13T03:47:07.005Z,24.80
2018-08-13T03:49:32.966Z,24.51
2018-08-13T03:51:58.944Z,24.69
2018-08-13T03:54:24.935Z,24.62
2018-08-13T03:56:50.887Z,24.81
2018-08-13T03:59:16.871Z,24.64
2018-08-13T04:01:42.823Z,24.61
2018-08-13T04:04:08.774Z,24.72
2018-08-13T04:06:34.751Z,24.65
2018-08-13T04:09:00.743Z,24.77
2018-08-13T04:11:26.733Z,24.61
2018-08-13T04:13:52.662Z,24.77
2018-08-13T04:16:18.592Z,25.12
2018-08-13T04:18:44.526Z,24.85
2018-08-13T04:21:10.484Z,24.93
2018-08-13T04:23:36.432Z,24.88
2018-08-13T04:26:02.374Z,24.92
2018-08-13T04:28:28.323Z,24.82
2018-08-13T04:30:54.343Z,25.06
2018-08-13T04:33:20.300Z,25.07
2018-08-13T04:35:46.228Z,24.61
2018-08-13T04:38:12.171Z,24.58
2018-08-13T04:40:38.120Z,24.78
2018-08-13T04:43:04.089Z,24.79
2018-08-13T04:45:30.043Z,25.02
2018-08-13T04:47:56.023Z,25.30
2018-08-13T04:50:21.980Z,25.11
2018-08-13T04:52:47.952Z,24.95
2018-08-13T04:55:13.916Z,25.26
2018-08-13T04:57:39.897Z,25.33
2018-08-13T05:00:05.879Z,25.50
2018-08-13T05:02:31.849Z,25.70
2018-08-13T05:04:57.806Z,25.65
2018-08-13T05:07:23.776Z,26.05
2018-08-13T05:09:49.743Z,25.72
2018-08-13T05:12:15.697Z,25.73
2018-08-13T05:14:41.673Z,25.82
2018-08-13T05:17:07.632Z,25.84
2018-08-13T05:19:33.577Z,26.09
2018-08-13T05:21:59.502Z,26.07
2018-08-13T05:24:25.468Z,26.09
2018-08-13T05:26:51.421Z,26.21
2018-08-13T05:29:17.435Z,26.68
2018-08-13T05:31:43.395Z,26.40
2018-08-13T05:34:09.374Z,27.10
2018-08-13T05:36:35.316Z,26.60
2018-08-13T05:39:01.289Z,27.13
2018-08-13T05:41:27.242Z,26.80
2018-08-13T05:43:53.191Z,26.60
2018-08-13T05:46:19.166Z,26.74
2018-08-13T05:48:45.139Z,26.74
2018-08-13T05:51:11.104Z,27.02
2018-08-13T05:53:37.056Z,27.20
2018-08-13T05:56:03.100Z,26.95
2018-08-13T05:58:29.071Z,27.34
2018-08-13T06:00:55.014Z,27.36
2018-08-13T06:03:21.002Z,27.07
2018-08-13T06:05:46.958Z,27.23
2018-08-13T06:08:12.900Z,27.32
2018-08-13T06:10:38.863Z,27.57
2018-08-13T06:13:04.823Z,27.90
2018-08-13T06:15:30.811Z,27.65
2018-08-13T06:17:56.783Z,27.65
2018-08-13T06:20:22.718Z,27.26
2018-08-13T06:22:48.652Z,27.52
2018-08-13T06:25:14.652Z,27.69
2018-08-13T06:27:40.619Z,27.76
2018-08-13T06:30:06.637Z,27.80
2018-08-13T06:32:32.563Z,28.33
2018-08-13T06:34:58.530Z,27.99
2018-08-13T06:37:24.590Z,28.20
2018-08-13T06:39:50.581Z,28.39
2018-08-13T06:42:16.543Z,28.19
2018-08-13T06:44:42.483Z,28.39
2018-08-13T06:47:08.760Z,28.83
2018-08-13T06:49:34.712Z,28.40
2018-08-13T06:52:00.710Z,28.72
2018-08-13T06:54:26.670Z,28.74
2018-08-13T06:56:52.660Z,29.17
2018-08-13T06:59:18.622Z,29.05
2018-08-13T07:01:44.581Z,29.05
2018-08-13T07:04:10.678Z,29.24
2018-08-13T07:06:36.659Z,29.35
2018-08-13T07:09:02.679Z,29.38
2018-08-13T07:11:28.659Z,29.53
2018-08-13T07:13:54.648Z,29.38
2018-08-13T07:16:20.589Z,28.90
2018-08-13T07:18:46.561Z,29.00
2018-08-13T07:21:12.533Z,28.97
2018-08-13T07:23:38.530Z,29.09
2018-08-13T07:26:04.473Z,29.24
2018-08-13T07:28:30.456Z,29.17
2018-08-13T07:30:56.408Z,29.42
2018-08-13T07:33:22.386Z,29.45
2018-08-13T07:35:48.332Z,29.60
2018-08-13T07:38:14.284Z,29.53
2018-08-13T07:40:40.227Z,29.89
2018-08-13T07:43:06.187Z,30.06
2018-08-13T07:45:32.198Z,30.15
2018-08-13T07:47:58.115Z,30.17
2018-08-13T07:50:24.153Z,30.20
2018-08-13T07:52:50.110Z,30.39
2018-08-13T07:55:16.075Z,30.27
2018-08-13T07:57:42.016Z,29.63
2018-08-13T08:00:08.133Z,29.61
2018-08-13T08:02:33.949Z,30.10
2018-08-13T08:04:59.917Z,30.16
2018-08-13T08:07:25.848Z,30.20
2018-08-13T08:09:51.809Z,29.74
2018-08-13T08:12:17.772Z,29.96
2018-08-13T08:14:43.774Z,30.36
2018-08-13T08:17:09.732Z,30.34
2018-08-13T08:19:35.702Z,30.58
2018-08-13T08:22:01.671Z,30.57
2018-08-13T08:24:27.618Z,30.34
2018-08-13T08:26:53.553Z,30.62
2018-08-13T08:29:19.562Z,30.90
2018-08-13T08:31:45.563Z,31.00
2018-08-13T08:34:11.503Z,31.11
2018-08-13T08:36:37.531Z,30.93
2018-08-13T08:39:03.531Z,31.07
2018-08-13T08:41:29.523Z,30.98
2018-08-13T08:43:55.535Z,31.31
2018-08-13T08:46:21.517Z,31.37
2018-08-13T08:48:47.646Z,30.96
2018-08-13T08:51:13.672Z,30.40
2018-08-13T08:53:39.673Z,30.47
2018-08-13T08:56:05.669Z,30.44
2018-08-13T08:58:31.676Z,30.15
2018-08-13T09:00:57.660Z,30.06
2018-08-13T09:03:23.645Z,30.11
2018-08-13T09:05:49.636Z,30.19
2018-08-13T09:08:15.789Z,30.27
2018-08-13T09:10:41.744Z,30.29
2018-08-13T09:13:07.760Z,30.27
2018-08-13T09:15:33.747Z,30.27
2018-08-13T09:17:59.769Z,30.30
2018-08-13T09:20:25.857Z,30.23
2018-08-13T09:22:51.848Z,30.30
2018-08-13T09:25:17.881Z,30.39
2018-08-13T09:27:43.844Z,30.39
2018-08-13T09:30:09.818Z,30.45
2018-08-13T09:32:35.871Z,30.44
2018-08-13T09:35:01.911Z,30.48
2018-08-13T09:37:27.875Z,30.31
2018-08-13T09:39:53.859Z,30.34
2018-08-13T09:42:19.847Z,30.17
2018-08-13T09:44:45.830Z,30.26
2018-08-13T09:47:11.819Z,30.25
2018-08-13T09:49:37.811Z,30.34
2018-08-13T09:52:03.805Z,30.37
2018-08-13T09:54:29.768Z,30.42
2018-08-13T09:56:55.731Z,30.42
2018-08-13T09:59:21.745Z,30.07
2018-08-13T10:01:47.725Z,30.21
2018-08-13T10:04:13.718Z,30.08
2018-08-13T10:06:39.692Z,29.92
2018-08-13T10:09:05.646Z,29.81
2018-08-13T10:11:31.590Z,29.82
2018-08-13T10:13:57.532Z,29.54
2018-08-13T10:16:23.505Z,29.49
2018-08-13T10:18:49.458Z,29.70
2018-08-13T10:21:15.398Z,30.06
2018-08-13T10:23:41.352Z,29.77
2018-08-13T10:26:07.308Z,29.66
2018-08-13T10:28:33.262Z,29.85
2018-08-13T10:30:59.225Z,30.05
2018-08-13T10:33:25.179Z,30.16
2018-08-13T10:35:51.134Z,30.28
2018-08-13T10:38:17.101Z,30.30
2018-08-13T10:40:43.019Z,30.28
2018-08-13T10:43:08.953Z,30.32
2018-08-13T10:45:34.907Z,30.34
2018-08-13T10:48:00.872Z,30.34
2018-08-13T10:50:26.837Z,30.31
2018-08-13T10:52:52.810Z,30.32
2018-08-13T10:55:18.767Z,30.35
2018-08-13T10:57:44.710Z,30.29
2018-08-13T11:00:10.729Z,30.30
2018-08-13T11:02:36.725Z,30.31
2018-08-13T11:05:02.749Z,30.07
2018-08-13T11:07:28.756Z,30.23
2018-08-13T11:09:54.736Z,30.26
2018-08-13T11:12:20.698Z,30.31
2018-08-13T11:14:46.723Z,30.36
2018-08-13T11:17:12.755Z,30.29
2018-08-13T11:19:38.740Z,30.36
2018-08-13T11:22:04.737Z,30.18
2018-08-13T11:24:30.704Z,29.99
2018-08-13T11:26:56.708Z,30.19
2018-08-13T11:29:22.741Z,30.32
2018-08-13T11:31:48.751Z,30.35
2018-08-13T11:34:14.763Z,30.37
2018-08-13T11:36:40.781Z,30.38
2018-08-13T11:39:06.776Z,30.32
2018-08-13T11:41:32.808Z,30.38
2018-08-13T11:43:58.797Z,30.38
2018-08-13T11:46:24.811Z,30.19
2018-08-13T11:48:50.763Z,30.28
2018-08-13T11:51:16.737Z,30.14
2018-08-13T11:53:42.721Z,30.22
2018-08-13T11:56:08.739Z,30.16
2018-08-13T11:58:34.723Z,30.29
2018-08-13T12:01:00.768Z,30.37
2018-08-13T12:03:26.745Z,30.40
2018-08-13T12:05:52.750Z,30.36
2018-08-13T12:08:18.749Z,30.33
2018-08-13T12:10:44.772Z,30.33
2018-08-13T12:13:10.765Z,30.13
2018-08-13T12:15:36.751Z,30.32
2018-08-13T12:18:02.713Z,30.41
2018-08-13T12:20:28.663Z,30.43
2018-08-13T12:22:54.644Z,30.35
2018-08-13T12:25:20.582Z,30.38
2018-08-13T12:27:46.528Z,30.41
2018-08-13T12:30:12.480Z,30.18
2018-08-13T12:32:38.440Z,30.32
2018-08-13T12:35:04.375Z,30.38
2018-08-13T12:37:30.409Z,30.41
2018-08-13T12:39:56.379Z,30.31
2018-08-13T12:42:22.333Z,30.40
2018-08-13T12:44:48.271Z,30.39
2018-08-13T12:47:14.219Z,30.41
2018-08-13T12:49:40.203Z,30.39
2018-08-13T12:52:06.165Z,30.37
2018-08-13T12:54:32.121Z,30.42
2018-08-13T12:56:58.101Z,30.45
2018-08-13T12:59:24.065Z,30.42
2018-08-13T13:01:50.123Z,30.27
2018-08-13T13:04:16.111Z,30.41
2018-08-13T13:06:42.055Z,30.39
2018-08-13T13:09:08.023Z,30.42
2018-08-13T13:11:33.985Z,30.44
2018-08-13T13:13:59.979Z,30.45
2018-08-13T13:16:25.935Z,30.41
2018-08-13T13:18:51.921Z,30.46
2018-08-13T13:21:17.894Z,30.37
2018-08-13T13:23:43.828Z,30.33
2018-08-13T13:26:09.757Z,30.31
2018-08-13T13:28:35.731Z,30.26
2018-08-13T13:31:01.712Z,30.25
2018-08-13T13:33:27.689Z,30.36
2018-08-13T13:35:53.666Z,30.41
2018-08-13T13:38:19.634Z,30.34
2018-08-13T13:40:45.573Z,30.47
2018-08-13T13:43:11.546Z,30.47
2018-08-13T13:45:37.509Z,30.50
2018-08-13T13:48:03.469Z,30.53
2018-08-13T13:50:29.449Z,30.54
2018-08-13T13:52:55.396Z,30.56
2018-08-13T13:55:21.398Z,30.56
2018-08-13T13:57:47.384Z,30.56
2018-08-13T14:00:13.364Z,30.56
2018-08-13T14:02:39.329Z,30.55
2018-08-13T14:05:05.287Z,30.56
2018-08-13T14:07:31.247Z,30.45
2018-08-13T14:09:57.240Z,30.45
2018-08-13T14:12:23.173Z,30.49
2018-08-13T14:14:49.155Z,29.95
2018-08-13T14:17:15.115Z,29.98
2018-08-13T14:19:41.093Z,29.83
2018-08-13T14:22:07.054Z,29.93
2018-08-13T14:24:33.006Z,29.97
2018-08-13T14:26:58.965Z,30.10
2018-08-13T14:29:24.933Z,30.05
2018-08-13T14:31:50.883Z,30.08
2018-08-13T14:34:16.941Z,30.10
2018-08-13T14:36:42.922Z,30.25
2018-08-13T14:39:08.870Z,30.12
2018-08-13T14:41:34.820Z,29.99
2018-08-13T14:44:00.838Z,30.22
2018-08-13T14:46:26.840Z,30.13
2018-08-13T14:48:52.896Z,30.04
2018-08-13T14:51:18.918Z,30.19
2018-08-13T14:53:44.890Z,30.18
2018-08-13T14:56:10.856Z,30.12
2018-08-13T14:58:36.840Z,30.21
2018-08-13T15:01:02.801Z,30.28
2018-08-13T15:03:28.762Z,30.12
2018-08-13T15:05:54.705Z,29.89
2018-08-13T15:08:20.681Z,30.10
2018-08-13T15:10:46.636Z,29.94
2018-08-13T15:13:12.606Z,30.12
2018-08-13T15:15:38.609Z,30.00
2018-08-13T15:18:04.605Z,30.18
2018-08-13T15:20:30.564Z,30.32
2018-08-13T15:22:56.522Z,30.11
2018-08-13T15:25:22.465Z,30.23
2018-08-13T15:27:48.689Z,30.01
2018-08-13T15:30:14.594Z,30.24
2018-08-13T15:32:40.597Z,30.29
2018-08-13T15:35:06.579Z,29.95
2018-08-13T15:37:32.588Z,30.12
2018-08-13T15:40:01.861Z,30.12
2018-08-13T15:42:27.838Z,30.10
2018-08-13T15:44:53.869Z,30.12
2018-08-13T15:47:19.841Z,30.30
2018-08-13T15:49:45.815Z,30.37
2018-08-13T15:52:11.777Z,30.17
2018-08-13T15:54:38.697Z,30.29
2018-08-13T15:57:04.676Z,30.18
2018-08-13T15:59:30.630Z,30.13
2018-08-13T16:01:56.590Z,29.96
2018-08-13T16:04:22.590Z,30.04
2018-08-13T16:06:48.530Z,30.09
2018-08-13T16:09:14.468Z,30.11
2018-08-13T16:11:40.447Z,30.09
2018-08-13T16:14:06.433Z,30.05
2018-08-13T16:16:32.382Z,30.11
2018-08-13T16:18:58.317Z,30.18
2018-08-13T16:21:24.251Z,30.28
2018-08-13T16:23:50.189Z,30.25
2018-08-13T16:26:16.164Z,30.15
2018-08-13T16:28:42.117Z,30.11
2018-08-13T16:31:08.076Z,30.28
2018-08-13T16:33:34.051Z,30.14
2018-08-13T16:36:00.010Z,30.06
2018-08-13T16:38:25.966Z,30.10
2018-08-13T16:40:51.932Z,30.11
2018-08-13T16:43:17.916Z,30.06
2018-08-13T16:45:43.855Z,30.12
2018-08-13T16:48:09.839Z,30.20
2018-08-13T16:50:36.979Z,30.09
2018-08-13T16:53:02.928Z,30.14
2018-08-13T16:55:28.957Z,30.08
2018-08-13T16:57:54.840Z,30.08
2018-08-13T17:00:20.794Z,30.23
2018-08-13T17:02:46.754Z,30.10
2018-08-13T17:05:12.691Z,30.04
2018-08-13T17:07:38.695Z,30.03
2018-08-13T17:10:04.669Z,29.98
2018-08-13T17:12:30.718Z,30.02
2018-08-13T17:14:56.673Z,30.31
2018-08-13T17:17:22.637Z,30.15
2018-08-13T17:19:48.574Z,30.17
2018-08-13T17:22:14.537Z,30.26
2018-08-13T17:24:40.577Z,30.07
2018-08-13T17:27:06.533Z,30.17
2018-08-13T17:29:32.490Z,30.09
2018-08-13T17:31:58.450Z,30.30
2018-08-13T17:34:24.756Z,30.42
2018-08-13T17:36:50.722Z,30.34
2018-08-13T17:39:16.784Z,30.12
2018-08-13T17:41:42.773Z,30.08
2018-08-13T17:44:08.729Z,30.06
2018-08-13T17:46:34.782Z,30.43
2018-08-13T17:49:00.752Z,30.25
2018-08-13T17:51:26.718Z,30.04
2018-08-13T17:53:52.693Z,30.03
2018-08-13T17:56:18.681Z,29.96
2018-08-13T17:58:44.654Z,29.97
2018-08-13T18:01:10.620Z,30.03
2018-08-13T18:03:36.586Z,29.99
2018-08-13T18:06:02.563Z,30.05
2018-08-13T18:08:28.517Z,30.00
2018-08-13T18:10:54.469Z,29.96
2018-08-13T18:13:20.418Z,29.97
2018-08-13T18:15:46.375Z,30.08
2018-08-13T18:18:12.340Z,30.11
2018-08-13T18:20:38.362Z,29.90
2018-08-13T18:23:06.345Z,30.41
2018-08-13T18:25:32.315Z,29.94
2018-08-13T18:27:58.276Z,29.90
2018-08-13T18:30:24.239Z,30.01
2018-08-13T18:32:50.208Z,30.19
2018-08-13T18:35:16.182Z,30.25
2018-08-13T18:37:42.122Z,30.45
2018-08-13T18:40:08.114Z,30.34
2018-08-13T18:42:34.128Z,30.30
2018-08-13T18:45:00.176Z,30.01
2018-08-13T18:47:26.198Z,30.37
2018-08-13T18:49:52.196Z,30.44
2018-08-13T18:52:18.261Z,30.41
2018-08-13T18:54:44.267Z,30.00
2018-08-13T18:57:10.262Z,30.05
2018-08-13T18:59:36.237Z,29.98
2018-08-13T19:02:02.220Z,29.95
2018-08-13T19:04:28.264Z,30.17
2018-08-13T19:06:54.239Z,29.95
2018-08-13T19:09:20.224Z,30.03
2018-08-13T19:11:46.229Z,29.98
2018-08-13T19:14:12.136Z,29.86
2018-08-13T19:16:38.180Z,29.84
2018-08-13T19:19:04.186Z,29.85
2018-08-13T19:21:30.203Z,30.03
2018-08-13T19:23:56.190Z,29.91
2018-08-13T19:26:22.209Z,29.85
2018-08-13T19:28:48.310Z,29.96
2018-08-13T19:31:14.376Z,29.86
2018-08-13T19:33:40.327Z,29.79
2018-08-13T19:36:06.268Z,29.81
2018-08-13T19:38:32.273Z,30.04
2018-08-13T19:40:58.243Z,29.99
2018-08-13T19:43:24.200Z,29.85
2018-08-13T19:45:50.241Z,29.74
2018-08-13T19:48:16.234Z,29.80
2018-08-13T19:50:42.186Z,29.72
2018-08-13T19:53:08.242Z,29.72
2018-08-13T19:55:34.195Z,29.64
2018-08-13T19:58:00.183Z,29.70
2018-08-13T20:00:26.209Z,29.75
2018-08-13T20:02:52.224Z,29.68
2018-08-13T20:05:18.226Z,29.66
2018-08-13T20:07:44.190Z,29.81
2018-08-13T20:10:10.150Z,29.58
2018-08-13T20:12:36.128Z,29.44
2018-08-13T20:15:02.097Z,29.62
2018-08-13T20:17:28.086Z,29.68
2018-08-13T20:19:54.046Z,29.66
2018-08-13T20:22:19.997Z,29.65
2018-08-13T20:24:45.965Z,29.55
2018-08-13T20:27:11.899Z,29.54
2018-08-13T20:29:38.053Z,29.54
2018-08-13T20:32:04.000Z,29.56
2018-08-13T20:34:29.966Z,29.36
2018-08-13T20:36:55.984Z,29.42
2018-08-13T20:39:21.933Z,29.60
2018-08-13T20:41:47.985Z,29.32
2018-08-13T20:44:14.009Z,29.43
2018-08-13T20:46:39.981Z,29.57
2018-08-13T20:49:05.938Z,29.51
2018-08-13T20:51:32.002Z,29.40
2018-08-13T20:53:57.981Z,29.52
2018-08-13T20:56:23.957Z,29.46
2018-08-13T20:58:49.927Z,29.44
2018-08-13T21:01:17.112Z,29.09
2018-08-13T21:03:43.186Z,29.15
2018-08-13T21:06:09.168Z,29.09
2018-08-13T21:08:35.162Z,29.44
2018-08-13T21:11:01.136Z,29.23
2018-08-13T21:13:27.089Z,29.41
2018-08-13T21:15:53.110Z,29.50
2018-08-13T21:18:19.067Z,29.59
2018-08-13T21:20:45.092Z,29.43
2018-08-13T21:23:11.094Z,29.44
2018-08-13T21:25:37.081Z,29.64
2018-08-13T21:28:03.021Z,29.20
2018-08-13T21:30:29.017Z,29.29
2018-08-13T21:32:54.972Z,29.24
2018-08-13T21:35:20.952Z,29.33
2018-08-13T21:37:46.932Z,29.31
2018-08-13T21:40:12.925Z,29.31
2018-08-13T21:42:38.970Z,28.97
2018-08-13T21:45:05.819Z,28.99
2018-08-13T21:47:31.788Z,28.94
2018-08-13T21:49:57.748Z,28.71
2018-08-13T21:52:23.728Z,28.91
2018-08-13T21:54:49.647Z,29.01
2018-08-13T21:57:15.634Z,29.05
2018-08-13T21:59:41.588Z,29.10
2018-08-13T22:02:07.684Z,29.12
2018-08-13T22:04:33.578Z,28.97
2018-08-13T22:06:59.528Z,28.96
2018-08-13T22:09:25.474Z,28.34
2018-08-13T22:11:51.461Z,28.74
2018-08-13T22:14:17.421Z,29.30
2018-08-13T22:16:43.449Z,29.09
2018-08-13T22:19:09.436Z,29.25
2018-08-13T22:21:35.464Z,28.82
2018-08-13T22:24:01.442Z,28.88
2018-08-13T22:26:27.450Z,28.54
2018-08-13T22:28:53.383Z,28.66
2018-08-13T22:31:19.338Z,28.50
2018-08-13T22:33:45.280Z,28.53
2018-08-13T22:36:11.308Z,28.68
2018-08-13T22:38:37.246Z,28.94
2018-08-13T22:41:03.192Z,28.82
2018-08-13T22:43:29.157Z,28.73
2018-08-13T22:45:55.131Z,28.34
2018-08-13T22:48:21.115Z,28.59
2018-08-13T22:50:47.074Z,28.62
2018-08-13T22:53:13.056Z,28.68
2018-08-13T22:55:38.981Z,28.55
2018-08-13T22:58:04.925Z,28.92
2018-08-13T23:00:30.863Z,28.58
2018-08-13T23:02:56.791Z,28.36
2018-08-13T23:05:22.745Z,28.05
2018-08-13T23:07:48.680Z,27.90
2018-08-13T23:10:14.615Z,28.11
2018-08-13T23:12:40.563Z,28.21
2018-08-13T23:15:06.515Z,28.19
2018-08-13T23:17:32.518Z,28.23
2018-08-13T23:19:58.465Z,28.49
2018-08-13T23:22:24.436Z,28.45
2018-08-13T23:24:50.389Z,28.49
2018-08-13T23:27:16.346Z,28.19
2018-08-13T23:29:42.321Z,28.21
2018-08-13T23:32:08.272Z,28.26
2018-08-13T23:34:34.200Z,28.09
2018-08-13T23:37:00.192Z,27.96
2018-08-13T23:39:26.131Z,28.22
2018-08-13T23:41:52.119Z,28.09
2018-08-13T23:44:18.076Z,28.52
2018-08-13T23:46:44.017Z,28.00
2018-08-13T23:49:09.981Z,28.43
2018-08-13T23:51:35.939Z,28.48
2018-08-13T23:54:01.896Z,28.42
2018-08-13T23:56:27.868Z,28.55
2018-08-13T23:58:53.796Z,28.30
